Time;durP1;ratioP1;P1;durP2;ratioP2;P2;SDS_P1;SDS_P2;PMS_P1;PMS_P2;Temp;Humidity;BMP_temperature;BMP_pressure;BME280_temperature;BME280_humidity;BME280_pressure;Samples;Min_cycle;Max_cycle;Signal;HPM_P1;HPM_P2
2022/12/05 00:00:53;;;;;;;;;;;;;;;21.31;45.98;101336.34;5048365;28;4183;-68
2022/12/05 00:03:20;;;;;;;;;;;;;;;21.30;45.89;101334.88;5052958;28;4199;-68
2022/12/05 00:05:46;;;;;;;;;;;;;;;21.30;45.51;101334.88;5054207;28;4168;-68
2022/12/05 00:08:13;;;;;;;;;;;;;;;21.32;45.63;101342.84;5049506;28;4175;-68
2022/12/05 00:10:39;;;;;;;;;;;;;;;21.29;45.86;101338.38;5054308;28;5408;-68
2022/12/05 00:13:05;;;;;;;;;;;;;;;21.28;45.90;101339.75;5054716;28;4240;-68
2022/12/05 00:15:35;;;;;;;;;;;;;;;21.28;45.90;101334.00;5056724;28;4168;-68
2022/12/05 00:18:01;;;;;;;;;;;;;;;21.27;45.92;101336.13;5054212;28;4313;-68
2022/12/05 00:20:27;;;;;;;;;;;;;;;21.27;45.93;101336.13;5043902;28;4217;-68
2022/12/05 00:22:54;;;;;;;;;;;;;;;21.29;45.80;101333.38;5056397;28;4172;-68
2022/12/05 00:25:20;;;;;;;;;;;;;;;21.28;45.74;101331.13;5051752;28;4166;-68
2022/12/05 00:27:46;;;;;;;;;;;;;;;21.27;45.78;101336.13;5048349;28;4209;-68
2022/12/05 00:30:13;;;;;;;;;;;;;;;21.29;45.83;101333.38;5049887;28;4209;-68
2022/12/05 00:32:39;;;;;;;;;;;;;;;21.29;45.94;101330.47;5047181;28;5304;-68
2022/12/05 00:35:05;;;;;;;;;;;;;;;21.30;45.82;101329.09;5044065;28;4188;-68
2022/12/05 00:37:32;;;;;;;;;;;;;;;21.33;45.75;101333.56;5041475;28;5197;-68
2022/12/05 00:39:58;;;;;;;;;;;;;;;21.38;45.92;101333.78;5035764;28;4177;-68
2022/12/05 00:42:25;;;;;;;;;;;;;;;21.40;45.91;101337.53;5043202;28;4292;-68
2022/12/05 00:44:51;;;;;;;;;;;;;;;21.40;46.14;101336.75;5045861;28;4876;-68
2022/12/05 00:47:17;;;;;;;;;;;;;;;21.41;45.94;101332.50;5047769;28;4098;-68
2022/12/05 00:49:44;;;;;;;;;;;;;;;21.41;45.97;101338.28;5033383;28;4090;-68
2022/12/05 00:52:10;;;;;;;;;;;;;;;21.41;45.94;101320.97;5036781;28;4083;-68
2022/12/05 00:54:37;;;;;;;;;;;;;;;21.42;46.00;101336.91;5045208;28;4612;-68
2022/12/05 00:57:03;;;;;;;;;;;;;;;21.42;45.85;101331.13;5042543;28;4052;-68
2022/12/05 00:59:30;;;;;;;;;;;;;;;21.41;46.02;101318.09;5040329;28;4563;-68
2022/12/05 01:01:56;;;;;;;;;;;;;;;21.41;46.04;101312.34;5042123;28;4372;-68
2022/12/05 01:04:23;;;;;;;;;;;;;;;21.42;45.98;101316.72;5042627;28;3968;-68
2022/12/05 01:06:49;;;;;;;;;;;;;;;21.39;46.06;101318.72;5035446;28;4134;-68
2022/12/05 01:09:16;;;;;;;;;;;;;;;21.39;46.26;101315.09;5044395;28;4195;-68
2022/12/05 01:11:43;;;;;;;;;;;;;;;21.38;45.98;101310.72;5040000;28;4169;-68
2022/12/05 01:14:10;;;;;;;;;;;;;;;21.38;46.10;101316.50;5038825;28;4395;-68
2022/12/05 01:16:36;;;;;;;;;;;;;;;21.40;46.10;101307.94;5042697;28;4129;-68
2022/12/05 01:19:04;;;;;;;;;;;;;;;21.36;46.16;101313.50;5039520;28;4182;-68
2022/12/05 01:21:30;;;;;;;;;;;;;;;21.34;46.27;101312.00;5032289;28;4134;-68
2022/12/05 01:23:56;;;;;;;;;;;;;;;21.37;46.24;101303.47;5027975;28;3976;-68
2022/12/05 01:26:23;;;;;;;;;;;;;;;21.36;46.07;101310.63;5040015;28;4014;-68
2022/12/05 01:28:49;;;;;;;;;;;;;;;21.34;46.34;101300.47;5035193;28;4119;-68
2022/12/05 01:31:26;;;;;;;;;;;;;;;21.31;46.27;101304.66;5043168;28;4188;-68
2022/12/05 01:33:53;;;;;;;;;;;;;;;21.30;46.09;101303.19;5032371;28;4161;-68
2022/12/05 01:36:19;;;;;;;;;;;;;;;21.31;46.07;101296.03;5041510;28;4161;-68
2022/12/05 01:38:45;;;;;;;;;;;;;;;21.32;46.06;101297.50;5047608;28;5418;-68
2022/12/05 01:41:13;;;;;;;;;;;;;;;21.32;46.31;101293.88;5051327;28;4274;-68
2022/12/05 01:43:52;;;;;;;;;;;;;;;21.34;46.04;101288.97;5035700;28;5162;-68
2022/12/05 01:46:18;;;;;;;;;;;;;;;21.37;46.01;101297.69;5048033;28;4122;-69
2022/12/05 01:48:44;;;;;;;;;;;;;;;21.40;46.23;101294.31;5041469;28;4147;-68
2022/12/05 01:51:11;;;;;;;;;;;;;;;21.42;46.07;101293.69;5051893;28;4263;-68
2022/12/05 01:53:37;;;;;;;;;;;;;;;21.42;46.13;101287.91;5040646;28;4005;-68
2022/12/05 01:56:03;;;;;;;;;;;;;;;21.42;46.26;101291.53;5033686;28;4015;-68
2022/12/05 01:58:31;;;;;;;;;;;;;;;21.40;46.11;101290.66;5044442;28;4027;-68
2022/12/05 02:00:57;;;;;;;;;;;;;;;21.42;46.12;101293.69;5047933;28;5186;-68
2022/12/05 02:03:23;;;;;;;;;;;;;;;21.40;46.24;101297.19;5036597;28;4261;-68
2022/12/05 02:05:50;;;;;;;;;;;;;;;21.41;46.34;101292.19;5038117;28;5510;-68
2022/12/05 02:08:16;;;;;;;;;;;;;;;21.40;46.28;101296.44;5049398;28;4145;-68
2022/12/05 02:10:44;;;;;;;;;;;;;;;21.38;46.08;101299.94;5037486;28;4084;-68
2022/12/05 02:13:29;;;;;;;;;;;;;;;21.36;46.25;101294.09;5036162;28;4260;-69
2022/12/05 02:15:55;;;;;;;;;;;;;;;21.36;46.35;101296.22;5042339;28;4234;-68
2022/12/05 02:18:28;;;;;;;;;;;;;;;21.37;46.26;101291.94;5031587;28;3956;-68
2022/12/05 02:21:00;;;;;;;;;;;;;;;21.39;46.12;101292.03;5038331;28;4099;-68
2022/12/05 02:23:40;;;;;;;;;;;;;;;21.36;45.99;101296.97;5052693;28;4076;-68
2022/12/05 02:26:15;;;;;;;;;;;;;;;21.36;46.31;101302.00;5044437;28;4149;-68
2022/12/05 02:28:50;;;;;;;;;;;;;;;21.38;46.12;101302.09;5045337;28;3980;-68
2022/12/05 02:31:26;;;;;;;;;;;;;;;21.40;46.06;101308.72;5035501;28;4025;-68
2022/12/05 02:34:04;;;;;;;;;;;;;;;21.40;46.14;101302.97;5039436;28;5277;-68
2022/12/05 02:36:43;;;;;;;;;;;;;;;21.44;46.25;101302.41;5041751;28;4016;-69
2022/12/05 02:39:17;;;;;;;;;;;;;;;21.44;46.00;101302.41;5049245;28;4064;-69
2022/12/05 02:41:54;;;;;;;;;;;;;;;21.45;46.37;101301.03;5042280;28;5145;-68
2022/12/05 02:44:22;;;;;;;;;;;;;;;21.45;46.27;101292.38;5031691;28;5658;-68
2022/12/05 02:46:48;;;;;;;;;;;;;;;21.44;45.83;101302.41;5047205;28;4134;-69
2022/12/05 02:49:16;;;;;;;;;;;;;;;21.45;46.17;101306.78;5051478;28;4053;-68
2022/12/05 02:51:47;;;;;;;;;;;;;;;21.40;46.36;101293.56;5051318;28;4068;-68
2022/12/05 02:54:17;;;;;;;;;;;;;;;21.43;46.06;101295.16;5054305;28;4121;-69
2022/12/05 02:56:44;;;;;;;;;;;;;;;21.42;46.35;101287.91;5045114;28;3971;-68
2022/12/05 02:59:10;;;;;;;;;;;;;;;21.44;46.31;101290.88;5045806;28;4129;-68
2022/12/05 03:01:36;;;;;;;;;;;;;;;21.41;46.24;101290.03;5032123;28;4031;-68
2022/12/05 03:04:03;;;;;;;;;;;;;;;21.38;46.22;101281.91;5043891;28;5288;-68
2022/12/05 03:06:31;;;;;;;;;;;;;;;21.36;46.30;101278.94;5039080;28;4010;-68
2022/12/05 03:09:01;;;;;;;;;;;;;;;21.34;46.36;101282.47;5041933;28;4176;-68
2022/12/05 03:11:27;;;;;;;;;;;;;;;21.32;46.15;101279.47;5044786;28;4103;-68
2022/12/05 03:13:54;;;;;;;;;;;;;;;21.31;46.18;101278.72;5044082;28;5647;-68
2022/12/05 03:16:25;;;;;;;;;;;;;;;21.33;46.28;101270.19;5047303;28;4119;-68
2022/12/05 03:18:59;;;;;;;;;;;;;;;21.32;46.33;101271.56;5047355;28;4168;-68
2022/12/05 03:21:28;;;;;;;;;;;;;;;21.32;46.32;101274.44;5048021;28;4145;-68
2022/12/05 03:23:55;;;;;;;;;;;;;;;21.33;46.34;101275.97;5029848;28;4110;-68
2022/12/05 03:26:29;;;;;;;;;;;;;;;21.33;46.17;101270.19;5043798;28;4195;-68
2022/12/05 03:29:10;;;;;;;;;;;;;;;21.37;46.31;101269.63;5040707;28;4316;-68
2022/12/05 03:31:41;;;;;;;;;;;;;;;21.37;46.08;101280.41;5045071;28;4165;-68
2022/12/05 03:34:08;;;;;;;;;;;;;;;21.41;46.51;101286.41;5049256;28;4334;-69
2022/12/05 03:36:36;;;;;;;;;;;;;;;21.46;46.24;101285.22;5038583;28;4195;-68
2022/12/05 03:39:09;;;;;;;;;;;;;;;21.46;46.46;101288.09;5045783;28;5134;-68
2022/12/05 03:41:47;;;;;;;;;;;;;;;21.49;46.10;101281.78;5044810;28;4182;-69
2022/12/05 03:44:17;;;;;;;;;;;;;;;21.48;46.24;101279.56;5049036;28;4172;-68
2022/12/05 03:46:45;;;;;;;;;;;;;;;21.48;46.14;101280.28;5042661;28;4194;-68
2022/12/05 03:49:20;;;;;;;;;;;;;;;21.49;46.07;101278.19;5055220;28;4123;-68
2022/12/05 03:51:52;;;;;;;;;;;;;;;21.50;46.13;101277.50;5049969;28;4207;-68
2022/12/05 03:54:39;;;;;;;;;;;;;;;21.51;46.22;101266.75;5046498;28;4198;-68
2022/12/05 03:57:22;;;;;;;;;;;;;;;21.53;46.18;101263.94;5037901;28;5541;-68
2022/12/05 03:59:55;;;;;;;;;;;;;;;21.55;45.83;101272.69;5047442;28;4227;-68
2022/12/05 04:02:29;;;;;;;;;;;;;;;21.54;45.93;101269.06;5039797;28;4140;-68
2022/12/05 04:05:06;;;;;;;;;;;;;;;21.56;45.71;101267.69;5039500;28;4244;-68
2022/12/05 04:07:33;;;;;;;;;;;;;;;21.56;46.00;101274.19;5043651;28;4139;-68
2022/12/05 04:10:00;;;;;;;;;;;;;;;21.56;45.84;101268.44;5041576;28;4272;-68
2022/12/05 04:12:27;;;;;;;;;;;;;;;21.56;45.89;101273.44;5043702;28;4144;-68
2022/12/05 04:14:58;;;;;;;;;;;;;;;21.54;45.92;101271.22;5042476;28;4313;-69
2022/12/05 04:17:43;;;;;;;;;;;;;;;21.51;45.92;101270.38;5047633;28;5250;-68
2022/12/05 04:23:05;;;;;;;;;;;;;;;21.54;45.93;101269.06;5043964;28;5129;-69
2022/12/05 04:25:35;;;;;;;;;;;;;;;21.54;45.83;101271.22;5052218;28;5221;-68
2022/12/05 04:28:07;;;;;;;;;;;;;;;21.53;45.78;101275.47;5037139;28;4187;-68
2022/12/05 04:30:42;;;;;;;;;;;;;;;21.55;45.94;101266.91;5047904;28;5208;-68
2022/12/05 04:33:20;;;;;;;;;;;;;;;21.54;45.84;101265.44;5048522;28;4148;-68
2022/12/05 04:35:53;;;;;;;;;;;;;;;21.54;45.76;101265.44;5044951;28;4285;-68
2022/12/05 04:38:22;;;;;;;;;;;;;;;21.53;45.88;101263.94;5047133;28;4119;-68
2022/12/05 04:40:51;;;;;;;;;;;;;;;21.52;45.80;101274.72;5039108;28;5241;-68
2022/12/05 04:43:17;;;;;;;;;;;;;;;21.51;46.02;101276.13;5048961;28;4079;-68
2022/12/05 04:45:43;;;;;;;;;;;;;;;21.52;45.91;101262.47;5049563;28;5203;-68
2022/12/05 04:48:11;;;;;;;;;;;;;;;21.53;45.75;101270.47;5047072;28;4411;-68
2022/12/05 04:50:37;;;;;;;;;;;;;;;21.55;45.76;101272.69;5040271;28;4142;-68
2022/12/05 04:53:03;;;;;;;;;;;;;;;21.56;45.99;101279.97;5044501;28;4283;-68
2022/12/05 04:55:30;;;;;;;;;;;;;;;21.56;45.75;101268.44;5036022;28;4503;-69
2022/12/05 04:57:59;;;;;;;;;;;;;;;21.58;45.94;101270.66;5044238;28;4239;-68
2022/12/05 05:00:26;;;;;;;;;;;;;;;21.61;45.77;101269.38;5049348;28;4065;-68
2022/12/05 05:03:11;;;;;;;;;;;;;;;21.61;46.03;101269.38;5038273;28;6304;-68
2022/12/05 05:05:38;;;;;;;;;;;;;;;21.60;45.67;101280.16;5035839;28;4080;-68
2022/12/05 05:08:04;;;;;;;;;;;;;;;21.62;45.69;101265.81;5038617;28;4340;-68
2022/12/05 05:10:38;;;;;;;;;;;;;;;21.61;45.68;101267.22;5040355;28;4228;-69
2022/12/05 05:13:04;;;;;;;;;;;;;;;21.62;45.69;101271.59;5033485;28;4304;-68
2022/12/05 05:15:31;;;;;;;;;;;;;;;21.62;45.91;101265.09;5038269;28;4210;-69
2022/12/05 05:17:57;;;;;;;;;;;;;;;21.61;45.68;101272.97;5042725;28;4219;-68
2022/12/05 05:20:23;;;;;;;;;;;;;;;21.60;45.79;101268.63;5035186;28;4180;-68
2022/12/05 05:22:50;;;;;;;;;;;;;;;21.59;45.93;101272.88;5043354;28;5117;-68
2022/12/05 05:25:17;;;;;;;;;;;;;;;21.60;45.70;101280.16;5046259;28;4052;-68
2022/12/05 05:27:46;;;;;;;;;;;;;;;21.59;45.75;101275.03;5047259;28;4050;-68
2022/12/05 05:30:12;;;;;;;;;;;;;;;21.59;45.85;101281.53;5045708;28;4024;-68
2022/12/05 05:32:38;;;;;;;;;;;;;;;21.60;45.61;101274.41;5055184;28;4182;-68
2022/12/05 05:35:05;;;;;;;;;;;;;;;21.60;45.66;101274.41;5050118;28;5201;-68
2022/12/05 05:37:31;;;;;;;;;;;;;;;21.59;45.63;101277.91;5048019;28;4132;-69
2022/12/05 05:39:58;;;;;;;;;;;;;;;21.58;45.72;101277.19;5031837;28;4208;-68
2022/12/05 05:42:25;;;;;;;;;;;;;;;21.58;45.65;101268.53;5045291;28;4131;-68
2022/12/05 05:44:51;;;;;;;;;;;;;;;21.58;45.44;101271.41;5032780;28;4214;-68
2022/12/05 05:47:17;;;;;;;;;;;;;;;21.58;45.85;101271.41;5046005;28;4137;-68
2022/12/05 05:49:44;;;;;;;;;;;;;;;21.57;45.75;101269.91;5046036;28;5264;-68
2022/12/05 05:52:10;;;;;;;;;;;;;;;21.60;45.79;101277.28;5040777;28;4191;-68
2022/12/05 05:54:36;;;;;;;;;;;;;;;21.61;45.76;101275.88;5039866;28;4371;-68
2022/12/05 05:57:03;;;;;;;;;;;;;;;21.60;46.10;101279.38;5033749;28;4032;-68
2022/12/05 05:59:29;;;;;;;;;;;;;;;21.57;46.08;101278.56;5040784;28;5341;-69
2022/12/05 06:01:55;;;;;;;;;;;;;;;21.56;45.83;101282.84;5036055;28;4178;-70
2022/12/05 06:04:22;;;;;;;;;;;;;;;21.60;46.35;101285.91;5049240;28;5357;-69
2022/12/05 06:06:48;;;;;;;;;;;;;;;21.67;46.74;101284.03;5046552;28;4045;-64
2022/12/05 06:09:14;;;;;;;;;;;;;;;21.70;46.58;101280.63;5040978;28;4184;-63
2022/12/05 06:11:41;;;;;;;;;;;;;;;21.72;46.88;101289.38;5050778;28;4145;-61
2022/12/05 06:14:07;;;;;;;;;;;;;;;21.69;47.05;101293.56;5036918;28;4560;-63
2022/12/05 06:16:33;;;;;;;;;;;;;;;21.81;47.21;101286.88;5042083;28;5385;-64
2022/12/05 06:19:00;;;;;;;;;;;;;;;21.79;47.41;101289.66;5043826;28;4130;-64
2022/12/05 06:21:26;;;;;;;;;;;;;;;21.98;48.55;101292.00;5040135;28;4482;-65
2022/12/05 06:23:53;;;;;;;;;;;;;;;22.15;48.99;101302.13;5044474;28;4053;-64
2022/12/05 06:26:19;;;;;;;;;;;;;;;22.25;48.40;101299.03;5042166;28;5208;-64
2022/12/05 06:28:45;;;;;;;;;;;;;;;22.38;48.38;101295.31;5045889;28;4299;-63
2022/12/05 06:31:16;;;;;;;;;;;;;;;22.32;48.15;101292.13;5048528;28;4236;-64
2022/12/05 06:33:42;;;;;;;;;;;;;;;22.30;48.19;101294.94;5042421;28;4411;-64
2022/12/05 06:36:09;;;;;;;;;;;;;;;22.31;48.35;101302.16;5043063;28;4183;-65
2022/12/05 06:38:35;;;;;;;;;;;;;;;22.33;48.52;101296.50;5047317;28;5566;-64
2022/12/05 06:41:08;;;;;;;;;;;;;;;22.23;47.94;101296.78;5032109;28;4107;-65
2022/12/05 06:43:35;;;;;;;;;;;;;;;22.15;48.47;101307.91;5037580;28;4107;-65
2022/12/05 06:46:04;;;;;;;;;;;;;;;22.11;48.72;101308.47;5032161;28;4240;-64
2022/12/05 06:48:31;;;;;;;;;;;;;;;22.06;48.78;101303.16;5050858;28;4289;-64
2022/12/05 06:50:57;;;;;;;;;;;;;;;22.09;49.17;101313.41;5043436;28;4123;-65
2022/12/05 06:54:07;;;;;;;;;;;;;;;21.94;48.66;101318.53;5031551;28;4243;-65
2022/12/05 06:56:33;;;;;;;;;;;;;;;22.09;48.12;101322.81;5027705;28;4739;-65
2022/12/05 06:59:00;;;;;;;;;;;;;;;22.13;48.23;101319.38;5030876;28;5168;-66
2022/12/05 07:01:39;;;;;;;;;;;;;;;22.14;48.32;101324.47;5046448;28;4239;-66
2022/12/05 07:04:07;;;;;;;;;;;;;;;22.16;48.31;101320.94;5035918;28;5062;-63
2022/12/05 07:06:34;;;;;;;;;;;;;;;22.10;48.14;101321.41;5037710;28;4327;-68
2022/12/05 07:09:00;;;;;;;;;;;;;;;21.95;47.49;101320.00;5042317;28;4171;-68
2022/12/05 07:11:26;;;;;;;;;;;;;;;21.99;47.16;101313.69;5041603;28;4251;-68
2022/12/05 07:13:53;;;;;;;;;;;;;;;22.04;46.49;101320.41;5039268;28;4205;-68
2022/12/05 07:16:19;;;;;;;;;;;;;;;20.66;45.64;101324.38;5032220;28;4540;-66
2022/12/05 07:18:45;;;;;;;;;;;;;;;21.30;45.74;101332.00;5045365;28;4151;-66
2022/12/05 07:21:12;;;;;;;;;;;;;;;21.44;45.17;101331.22;5046884;28;4248;-67
2022/12/05 07:23:40;;;;;;;;;;;;;;;21.37;45.08;101329.41;5045642;28;4159;-68
2022/12/05 07:26:07;;;;;;;;;;;;;;;21.41;44.40;101332.50;5049311;28;4179;-68
2022/12/05 07:28:33;;;;;;;;;;;;;;;21.40;44.33;101326.00;5050360;28;5303;-67
2022/12/05 07:31:00;;;;;;;;;;;;;;;21.42;44.18;101329.00;5051085;28;4120;-68
2022/12/05 07:33:27;;;;;;;;;;;;;;;21.37;43.74;101320.75;5053985;28;4114;-68
2022/12/05 07:35:57;;;;;;;;;;;;;;;21.31;43.48;101326.97;5042224;28;5178;-68
2022/12/05 07:38:24;;;;;;;;;;;;;;;21.30;43.77;101332.00;5035029;28;5149;-65
2022/12/05 07:40:50;;;;;;;;;;;;;;;21.51;45.25;101319.34;5045746;28;4141;-68
2022/12/05 07:43:16;;;;;;;;;;;;;;;21.63;44.41;101316.31;5054493;28;4731;-68
2022/12/05 07:45:43;;;;;;;;;;;;;;;21.64;43.39;101325.69;5054712;28;4460;-63
2022/12/05 07:48:09;;;;;;;;;;;;;;;21.66;43.62;101322.91;5057866;28;5356;-63
2022/12/05 07:50:42;;;;;;;;;;;;;;;21.58;43.02;101323.28;5049915;28;4106;-64
2022/12/05 07:53:08;;;;;;;;;;;;;;;21.61;42.73;101327.75;5041847;28;4088;-65
2022/12/05 07:55:36;;;;;;;;;;;;;;;21.69;42.44;101331.03;5037939;28;4147;-64
2022/12/05 07:58:02;;;;;;;;;;;;;;;21.56;42.61;101326.06;5036903;28;4468;-65
2022/12/05 08:00:28;;;;;;;;;;;;;;;21.47;42.25;101329.94;5033588;28;4123;-73
2022/12/05 08:02:55;;;;;;;;;;;;;;;21.42;41.80;101322.50;5036271;28;4118;-72
2022/12/05 08:05:21;;;;;;;;;;;;;;;21.51;42.27;101338.78;5034664;28;4067;-73
2022/12/05 08:07:48;;;;;;;;;;;;;;;21.73;42.37;101334.09;5034641;28;4191;-72
2022/12/05 08:10:14;;;;;;;;;;;;;;;21.93;42.53;101334.31;5035675;28;5118;-70
2022/12/05 08:12:40;;;;;;;;;;;;;;;22.04;42.24;101338.44;5029574;28;4650;-70
2022/12/05 08:15:07;;;;;;;;;;;;;;;22.06;42.25;101341.41;5036276;28;4094;-71
2022/12/05 08:17:33;;;;;;;;;;;;;;;22.05;41.52;101336.28;5042117;28;4219;-71
2022/12/05 08:20:01;;;;;;;;;;;;;;;22.02;41.51;101344.09;5041931;28;4165;-72
2022/12/05 08:22:27;;;;;;;;;;;;;;;22.17;41.92;101328.97;5041650;28;5062;-72
2022/12/05 08:24:53;;;;;;;;;;;;;;;22.10;42.63;101335.81;5036883;28;3981;-70
2022/12/05 08:27:21;;;;;;;;;;;;;;;22.09;42.75;101327.84;5043996;28;5338;-73
2022/12/05 08:29:48;;;;;;;;;;;;;;;22.44;43.06;101333.06;5042180;28;4100;-75
2022/12/05 08:32:14;;;;;;;;;;;;;;;22.40;42.39;101341.53;5044304;28;5380;-74
2022/12/05 08:34:41;;;;;;;;;;;;;;;22.35;43.15;101342.75;5040620;28;4124;-74
2022/12/05 08:37:07;;;;;;;;;;;;;;;22.31;43.09;101340.44;5042545;28;5433;-69
2022/12/05 08:39:35;;;;;;;;;;;;;;;21.93;43.05;101345.13;5038208;28;4124;-73
2022/12/05 08:42:04;;;;;;;;;;;;;;;21.74;43.44;101341.34;5028905;28;5198;-72
2022/12/05 08:44:30;;;;;;;;;;;;;;;21.72;43.89;101344.13;5033507;28;4254;-74
2022/12/05 08:46:56;;;;;;;;;;;;;;;21.69;44.22;101333.91;5043381;28;5499;-73
2022/12/05 08:49:23;;;;;;;;;;;;;;;21.69;44.01;101333.16;5044719;28;4186;-73
2022/12/05 08:51:49;;;;;;;;;;;;;;;21.67;44.02;101336.69;5041426;28;4167;-73
2022/12/05 08:54:15;;;;;;;;;;;;;;;21.67;44.25;101325.16;5038043;28;5474;-74
2022/12/05 08:56:42;;;;;;;;;;;;;;;21.69;44.33;101336.03;5030075;28;5066;-74
2022/12/05 08:59:08;;;;;;;;;;;;;;;21.65;44.52;101330.81;5043052;28;5296;-73
2022/12/05 09:01:37;;;;;;;;;;;;;;;21.65;44.61;101330.81;5043265;28;4162;-72
2022/12/05 09:04:04;;;;;;;;;;;;;;;21.62;44.43;101334.97;5026623;28;4128;-74
2022/12/05 09:06:30;;;;;;;;;;;;;;;21.66;44.82;101335.19;5034805;28;4078;-73
2022/12/05 09:09:01;;;;;;;;;;;;;;;21.61;44.71;101327.75;5037902;28;4203;-72
2022/12/05 09:11:28;;;;;;;;;;;;;;;21.63;44.72;101321.34;5031434;28;4175;-72
2022/12/05 09:13:56;;;;;;;;;;;;;;;21.65;44.77;101321.44;5044600;28;5252;-72
2022/12/05 09:16:23;;;;;;;;;;;;;;;21.66;44.94;101329.44;5036494;28;4479;-71
2022/12/05 09:18:50;;;;;;;;;;;;;;;21.73;45.33;101328.31;5032500;28;4081;-72
2022/12/05 09:21:17;;;;;;;;;;;;;;;21.89;44.92;101331.25;5043978;28;4389;-70
2022/12/05 09:23:43;;;;;;;;;;;;;;;21.96;44.41;101335.91;5046153;28;4160;-70
2022/12/05 09:26:10;;;;;;;;;;;;;;;22.09;44.70;101334.34;5046039;28;4208;-69
2022/12/05 09:28:37;;;;;;;;;;;;;;;22.26;44.92;101335.13;5044315;28;5203;-66
2022/12/05 09:31:07;;;;;;;;;;;;;;;22.17;44.63;101328.97;5045160;28;5213;-66
2022/12/05 09:33:34;;;;;;;;;;;;;;;22.15;44.79;101328.88;5043446;28;5449;-67
2022/12/05 09:36:01;;;;;;;;;;;;;;;21.97;44.97;101333.78;5050704;28;4065;-68
2022/12/05 09:38:28;;;;;;;;;;;;;;;21.81;44.81;101321.47;5050218;28;5246;-68
2022/12/05 09:41:06;;;;;;;;;;;;;;;21.75;45.11;101325.53;5036541;28;4583;-68
2022/12/05 09:43:35;;;;;;;;;;;;;;;21.75;45.12;101325.53;5044666;28;4213;-69
2022/12/05 09:46:03;;;;;;;;;;;;;;;21.87;45.28;101327.53;5052080;28;4284;-70
2022/12/05 09:48:30;;;;;;;;;;;;;;;21.98;45.41;101334.53;5051100;28;4325;-69
2022/12/05 09:50:59;;;;;;;;;;;;;;;21.81;45.52;101327.97;5050655;28;4271;-67
2022/12/05 09:53:32;;;;;;;;;;;;;;;21.77;45.43;101329.94;5051611;28;4114;-70
2022/12/05 09:56:01;;;;;;;;;;;;;;;21.67;45.54;101330.94;5049243;28;4260;-69
2022/12/05 09:58:29;;;;;;;;;;;;;;;21.68;45.48;101326.66;5042619;28;4204;-70
2022/12/05 10:00:59;;;;;;;;;;;;;;;21.82;46.13;101322.97;5050287;28;4071;-68
2022/12/05 10:03:36;;;;;;;;;;;;;;;21.75;45.53;101319.78;5053755;28;4159;-70
2022/12/05 10:06:14;;;;;;;;;;;;;;;21.79;45.77;101330.03;5056282;28;5274;-66
2022/12/05 10:08:59;;;;;;;;;;;;;;;21.92;45.73;101329.97;5044980;28;5335;-68
2022/12/05 10:11:33;;;;;;;;;;;;;;;21.99;45.59;101331.00;5045561;28;4215;-68
2022/12/05 10:14:16;;;;;;;;;;;;;;;21.83;45.54;101315.78;5048202;28;4109;-67
2022/12/05 10:16:47;;;;;;;;;;;;;;;21.86;45.68;101318.13;5024568;28;3963;-65
2022/12/05 10:19:14;;;;;;;;;;;;;;;21.88;45.52;101320.38;5045098;28;3949;-66
2022/12/05 10:21:49;;;;;;;;;;;;;;;21.92;45.43;101315.53;5045158;28;4034;-66
2022/12/05 10:24:17;;;;;;;;;;;;;;;21.93;45.62;101317.03;5046631;28;5836;-70
2022/12/05 10:26:44;;;;;;;;;;;;;;;21.90;45.45;101323.34;5043219;28;4209;-68
2022/12/05 10:29:11;;;;;;;;;;;;;;;21.91;45.67;101325.56;5028791;28;4316;-70
2022/12/05 10:31:38;;;;;;;;;;;;;;;21.83;45.47;101325.19;5029784;28;6336;-69
2022/12/05 10:34:16;;;;;;;;;;;;;;;21.99;45.76;101324.47;5030023;28;4204;-69
2022/12/05 10:37:02;;;;;;;;;;;;;;;21.96;45.58;101317.84;5039348;28;5535;-67
2022/12/05 10:39:29;;;;;;;;;;;;;;;22.00;45.74;101326.69;5029452;28;4408;-67
2022/12/05 10:41:55;;;;;;;;;;;;;;;21.95;45.63;101319.25;5033678;28;4817;-73
2022/12/05 10:44:21;;;;;;;;;;;;;;;22.08;45.25;101320.56;5035278;28;4198;-68
2022/12/05 10:46:48;;;;;;;;;;;;;;;21.91;45.04;101324.84;5031823;28;5165;-68
2022/12/05 10:49:14;;;;;;;;;;;;;;;21.95;45.57;101320.00;5022795;28;4030;-68
2022/12/05 10:51:41;;;;;;;;;;;;;;;22.05;45.50;101322.63;5035487;28;4211;-67
2022/12/05 10:54:20;;;;;;;;;;;;;;;21.98;45.39;101312.19;5024221;28;5316;-73
2022/12/05 10:56:47;;;;;;;;;;;;;;;21.88;45.37;101326.13;5040518;28;4160;-73
2022/12/05 10:59:14;;;;;;;;;;;;;;;21.81;45.70;101321.47;5033248;28;4353;-70
2022/12/05 11:01:43;;;;;;;;;;;;;;;21.81;45.50;101321.47;5030049;28;5461;-72
2022/12/05 11:04:19;;;;;;;;;;;;;;;21.75;45.68;101314.00;5030940;28;4240;-70
2022/12/05 11:06:49;;;;;;;;;;;;;;;21.77;45.69;101309.75;5028216;28;4142;-69
2022/12/05 11:09:17;;;;;;;;;;;;;;;21.78;45.57;101311.22;5034319;28;5209;-71
2022/12/05 11:11:44;;;;;;;;;;;;;;;21.71;45.92;101313.06;5036728;28;4134;-69
2022/12/05 11:14:21;;;;;;;;;;;;;;;21.87;45.93;101318.88;5033600;28;4039;-71
2022/12/05 11:16:51;;;;;;;;;;;;;;;21.95;45.94;101314.22;5041689;28;4472;-72
2022/12/05 11:19:20;;;;;;;;;;;;;;;21.97;45.75;101304.94;5038587;28;4202;-72
2022/12/05 11:21:46;;;;;;;;;;;;;;;21.99;45.69;101304.28;5037759;28;4069;-77
2022/12/05 11:24:32;;;;;;;;;;;;;;;22.18;45.77;101318.16;5036864;28;4477;-70
2022/12/05 11:26:59;;;;;;;;;;;;;;;22.30;46.04;101312.97;5038336;28;4099;-70
2022/12/05 11:29:28;;;;;;;;;;;;;;;22.34;46.06;101309.53;5032319;28;4136;-71
2022/12/05 11:31:55;;;;;;;;;;;;;;;22.35;45.92;101308.88;5025325;28;5328;-71
2022/12/05 11:34:44;;;;;;;;;;;;;;;22.35;46.77;101308.13;5037176;28;4050;-69
2022/12/05 11:37:12;;;;;;;;;;;;;;;22.35;45.79;101311.00;5016795;28;4155;-69
2022/12/05 11:39:38;;;;;;;;;;;;;;;22.44;46.24;101309.25;5040557;28;5262;-69
2022/12/05 11:42:26;;;;;;;;;;;;;;;22.43;46.05;101308.50;5029882;28;4318;-71
2022/12/05 11:44:58;;;;;;;;;;;;;;;22.48;46.33;101307.28;5041727;28;5221;-69
2022/12/05 11:47:44;;;;;;;;;;;;;;;22.50;45.95;101298.72;5040191;28;4141;-68
2022/12/05 11:50:10;;;;;;;;;;;;;;;22.53;45.94;101297.41;5031583;28;4073;-72
2022/12/05 11:52:46;;;;;;;;;;;;;;;22.50;46.19;101301.59;5025417;28;5110;-73
2022/12/05 11:55:15;;;;;;;;;;;;;;;22.56;46.30;101292.47;5035345;28;4279;-71
2022/12/05 11:57:47;;;;;;;;;;;;;;;22.56;45.98;101287.44;5043934;28;3957;-72
2022/12/05 12:00:21;;;;;;;;;;;;;;;22.56;46.31;101284.56;5040748;28;4107;-72
2022/12/05 12:03:06;;;;;;;;;;;;;;;22.61;46.33;101293.38;5034843;28;4129;-69
2022/12/05 12:05:37;;;;;;;;;;;;;;;22.71;46.49;101280.16;5038727;28;4187;-70
2022/12/05 12:08:16;;;;;;;;;;;;;;;22.72;46.34;101289.53;5029005;28;5094;-71
2022/12/05 12:11:04;;;;;;;;;;;;;;;22.77;46.42;101289.06;5039671;28;5146;-71
2022/12/05 12:13:30;;;;;;;;;;;;;;;22.91;46.05;101286.06;5042583;28;5333;-70
2022/12/05 12:16:11;;;;;;;;;;;;;;;22.97;44.83;101282.66;5048380;28;4079;-67
2022/12/05 12:18:51;;;;;;;;;;;;;;;22.82;45.58;101277.72;5040073;28;4058;-70
2022/12/05 12:21:30;;;;;;;;;;;;;;;22.78;45.95;101278.25;5036615;28;4186;-70
2022/12/05 12:24:22;;;;;;;;;;;;;;;22.87;45.95;101279.38;5047998;28;4218;-70
2022/12/05 12:27:07;;;;;;;;;;;;;;;22.97;45.58;101282.66;5047247;28;4923;-70
2022/12/05 12:29:45;;;;;;;;;;;;;;;23.02;45.40;101283.63;5037702;28;4074;-69
2022/12/05 12:32:15;;;;;;;;;;;;;;;22.91;45.98;101286.06;5036909;28;4155;-68
2022/12/05 12:34:55;;;;;;;;;;;;;;;22.94;45.83;101284.72;5038698;28;4069;-69
2022/12/05 12:37:34;;;;;;;;;;;;;;;22.96;45.70;101286.97;5040923;28;4200;-70
2022/12/05 12:40:15;;;;;;;;;;;;;;;22.93;45.80;101294.03;5038016;28;4074;-68
2022/12/05 12:42:55;;;;;;;;;;;;;;;22.85;46.26;101274.25;5036585;28;4173;-69
2022/12/05 12:45:39;;;;;;;;;;;;;;;22.86;46.18;101281.50;5039753;28;4134;-66
2022/12/05 12:48:18;;;;;;;;;;;;;;;22.97;46.15;101268.22;5037308;28;4128;-70
2022/12/05 12:50:44;;;;;;;;;;;;;;;23.00;45.59;101270.59;5038224;28;4144;-72
2022/12/05 12:53:24;;;;;;;;;;;;;;;22.93;45.99;101277.47;5040083;28;4500;-73
2022/12/05 12:56:09;;;;;;;;;;;;;;;22.70;45.86;101272.13;5041155;28;4103;-67
2022/12/05 12:58:44;;;;;;;;;;;;;;;22.74;45.65;101273.06;5033790;28;4080;-73
2022/12/05 13:01:31;;;;;;;;;;;;;;;22.54;45.71;101255.63;5033252;28;4244;-65
2022/12/05 13:04:01;;;;;;;;;;;;;;;22.59;46.02;101265.19;5036070;28;4124;-68